createdAt,value
2018-07-02T00:00:30.346Z,13.36
2018-07-02T00:01:40.517Z,13.43
2018-07-02T00:02:50.387Z,13.31
2018-07-02T00:04:00.279Z,13.39
2018-07-02T00:05:11.557Z,13.33
2018-07-02T00:06:22.219Z,13.31
2018-07-02T00:07:33.443Z,13.28
2018-07-02T00:08:44.963Z,13.27
2018-07-02T00:09:55.115Z,13.23
2018-07-02T00:11:05.234Z,13.21
2018-07-02T00:12:15.385Z,13.16
2018-07-02T00:13:25.227Z,13.09
2018-07-02T00:14:35.370Z,13.11
2018-07-02T00:15:45.196Z,13.12
2018-07-02T00:16:55.948Z,13.08
2018-07-02T00:18:07.102Z,13.05
2018-07-02T00:19:18.534Z,12.99
2018-07-02T00:20:28.342Z,12.99
2018-07-02T00:21:38.190Z,12.98
2018-07-02T00:22:48.179Z,12.9
2018-07-02T00:23:58.312Z,12.9
2018-07-02T00:25:08.431Z,12.9
2018-07-02T00:26:18.575Z,12.91
2018-07-02T00:27:29.855Z,12.99
2018-07-02T00:28:40.452Z,12.83
2018-07-02T00:29:51.656Z,12.87
2018-07-02T00:31:01.474Z,12.8
2018-07-02T00:32:11.332Z,12.88
2018-07-02T00:33:21.442Z,12.91
2018-07-02T00:34:31.552Z,12.86
2018-07-02T00:35:41.725Z,12.75
2018-07-02T00:36:51.615Z,12.84
2018-07-02T00:38:01.712Z,12.75
2018-07-02T00:39:11.843Z,12.78
2018-07-02T00:40:22.000Z,12.78
2018-07-02T00:41:34.664Z,12.78
2018-07-02T00:42:46.267Z,12.68
2018-07-02T00:43:56.976Z,12.69
2018-07-02T00:45:08.133Z,12.66
2018-07-02T00:46:18.198Z,12.58
2018-07-02T00:47:27.999Z,12.51
2018-07-02T00:48:38.096Z,12.54
2018-07-02T00:49:48.206Z,12.51
2018-07-02T00:50:58.342Z,12.53
2018-07-02T00:52:09.033Z,12.48
2018-07-02T00:53:20.267Z,12.47
2018-07-02T00:54:31.238Z,12.51
2018-07-02T00:55:42.024Z,12.51
2018-07-02T00:56:52.112Z,12.45
2018-07-02T00:58:02.265Z,12.54
2018-07-02T00:59:12.421Z,12.39
2018-07-02T01:00:23.289Z,12.44
2018-07-02T01:01:34.811Z,12.45
2018-07-02T01:02:45.434Z,12.36
2018-07-02T01:03:55.554Z,12.35
2018-07-02T01:05:05.677Z,12.37
2018-07-02T01:06:15.787Z,12.32
2018-07-02T01:07:26.855Z,12.29
2018-07-02T01:08:38.009Z,12.3
2018-07-02T01:09:47.794Z,12.36
2018-07-02T01:10:57.644Z,12.29
2018-07-02T01:12:07.761Z,12.28
2018-07-02T01:13:18.909Z,12.29
2018-07-02T01:14:28.711Z,12.28
2018-07-02T01:15:39.878Z,12.2
2018-07-02T01:16:49.978Z,12.15
2018-07-02T01:18:00.092Z,12.23
2018-07-02T01:19:11.209Z,12.08
2018-07-02T01:20:21.383Z,12.08
2018-07-02T01:21:31.949Z,12.05
2018-07-02T01:22:41.823Z,12.12
2018-07-02T01:23:51.909Z,12.03
2018-07-02T01:25:03.281Z,12
2018-07-02T01:26:13.101Z,12
2018-07-02T01:27:23.937Z,12
2018-07-02T01:28:34.045Z,11.99
2018-07-02T01:29:44.168Z,11.99
2018-07-02T01:30:55.318Z,11.88
2018-07-02T01:32:06.532Z,11.99
2018-07-02T01:33:16.659Z,11.93
2018-07-02T01:34:27.087Z,11.99
2018-07-02T01:35:37.699Z,11.91
2018-07-02T01:36:47.846Z,11.89
2018-07-02T01:37:57.650Z,11.96
2018-07-02T01:39:07.741Z,11.91
2018-07-02T01:40:18.788Z,11.95
2018-07-02T01:41:28.575Z,11.89
2018-07-02T01:42:39.621Z,11.91
2018-07-02T01:43:50.833Z,11.91
2018-07-02T01:45:00.950Z,11.97
2018-07-02T01:46:10.793Z,11.83
2018-07-02T01:47:20.672Z,11.78
2018-07-02T01:48:31.726Z,11.78
2018-07-02T01:49:41.843Z,11.8
2018-07-02T01:50:52.093Z,11.8
2018-07-02T01:52:01.891Z,11.81
2018-07-02T01:53:12.032Z,11.8
2018-07-02T01:54:22.171Z,11.83
2018-07-02T01:55:31.998Z,11.73
2018-07-02T01:56:43.183Z,11.73
2018-07-02T01:57:53.248Z,11.7
2018-07-02T01:59:03.328Z,11.65
2018-07-02T02:00:12.828Z,11.58
2018-07-02T02:01:22.885Z,11.52
2018-07-02T02:02:32.707Z,11.49
2018-07-02T02:03:43.772Z,11.48
2018-07-02T02:04:55.237Z,11.45
2018-07-02T02:06:06.589Z,11.4
2018-07-02T02:07:17.824Z,11.43
2018-07-02T02:08:27.879Z,11.49
2018-07-02T02:09:37.678Z,11.44
2018-07-02T02:10:47.719Z,11.45
2018-07-02T02:11:57.816Z,11.49
2018-07-02T02:13:07.855Z,11.43
2018-07-02T02:14:17.936Z,11.48
2018-07-02T02:15:29.762Z,11.43
2018-07-02T02:16:41.235Z,11.43
2018-07-02T02:17:52.310Z,11.44
2018-07-02T02:19:02.346Z,11.44
2018-07-02T02:20:12.135Z,11.44
2018-07-02T02:21:22.201Z,11.44
2018-07-02T02:22:32.262Z,11.44
2018-07-02T02:23:42.304Z,11.44
2018-07-02T02:24:53.636Z,11.37
2018-07-02T02:26:04.201Z,11.45
2018-07-02T02:27:15.503Z,11.41
2018-07-02T02:28:27.285Z,11.44
2018-07-02T02:29:37.393Z,11.35
2018-07-02T02:30:47.536Z,11.43
2018-07-02T02:31:57.600Z,11.45
2018-07-02T02:33:07.686Z,11.43
2018-07-02T02:34:17.464Z,11.43
2018-07-02T02:35:27.721Z,11.38
2018-07-02T02:36:38.594Z,11.45
2018-07-02T02:37:50.239Z,11.48
2018-07-02T02:39:00.943Z,11.45
2018-07-02T02:40:10.720Z,11.48
2018-07-02T02:41:20.760Z,11.45
2018-07-02T02:42:30.815Z,11.45
2018-07-02T02:43:40.596Z,11.44
2018-07-02T02:44:50.664Z,11.4
2018-07-02T02:46:01.545Z,11.35
2018-07-02T02:47:12.700Z,11.33
2018-07-02T02:48:23.908Z,11.34
2018-07-02T02:49:34.980Z,11.25
2018-07-02T02:50:44.801Z,11.4
2018-07-02T02:51:54.890Z,11.33
2018-07-02T02:53:04.709Z,11.27
2018-07-02T02:54:14.861Z,11.26
2018-07-02T02:55:24.964Z,11.26
2018-07-02T02:56:35.835Z,11.2
2018-07-02T02:57:47.172Z,11.25
2018-07-02T02:58:58.574Z,11.25
2018-07-02T03:00:09.088Z,11.25
2018-07-02T03:01:19.189Z,11.25
2018-07-02T03:02:29.254Z,11.2
2018-07-02T03:03:39.358Z,11.27
2018-07-02T03:04:48.863Z,11.13
2018-07-02T03:05:58.939Z,11.16
2018-07-02T03:07:08.989Z,11.23
2018-07-02T03:08:20.207Z,11.26
2018-07-02T03:09:31.476Z,11.22
2018-07-02T03:10:43.257Z,11.26
2018-07-02T03:11:54.054Z,11.31
2018-07-02T03:13:03.838Z,11.31
2018-07-02T03:14:13.342Z,11.31
2018-07-02T03:15:23.435Z,11.31
2018-07-02T03:16:33.496Z,11.3
2018-07-02T03:17:43.579Z,11.31
2018-07-02T03:18:54.653Z,11.25
2018-07-02T03:20:05.701Z,11.31
2018-07-02T03:21:17.523Z,11.31
2018-07-02T03:22:29.229Z,11.31
2018-07-02T03:23:39.898Z,11.34
2018-07-02T03:24:49.693Z,11.35
2018-07-02T03:25:59.765Z,11.26
2018-07-02T03:27:09.875Z,11.31
2018-07-02T03:28:19.953Z,11.27
2018-07-02T03:29:30.065Z,11.31
2018-07-02T03:30:40.343Z,11.26
2018-07-02T03:31:49.842Z,11.3
2018-07-02T03:33:01.328Z,11.27
2018-07-02T03:34:11.401Z,11.3
2018-07-02T03:35:21.468Z,11.25
2018-07-02T03:36:31.546Z,11.3
2018-07-02T03:37:41.662Z,11.3
2018-07-02T03:38:52.187Z,11.31
2018-07-02T03:40:03.284Z,11.25
2018-07-02T03:41:14.611Z,11.3
2018-07-02T03:42:26.203Z,11.3
2018-07-02T03:43:35.718Z,11.31
2018-07-02T03:44:45.882Z,11.3
2018-07-02T03:45:55.957Z,11.31
2018-07-02T03:47:06.007Z,11.26
2018-07-02T03:48:16.636Z,11.26
2018-07-02T03:49:26.866Z,11.3
2018-07-02T03:50:37.705Z,11.3
2018-07-02T03:51:49.346Z,11.31
2018-07-02T03:52:59.156Z,11.41
2018-07-02T03:54:08.927Z,11.35
2018-07-02T03:55:18.448Z,11.41
2018-07-02T03:56:28.214Z,11.45
2018-07-02T03:57:38.310Z,11.52
2018-07-02T03:58:48.276Z,11.45
2018-07-02T03:59:58.392Z,11.48
2018-07-02T04:01:09.987Z,11.53
2018-07-02T04:02:20.235Z,11.59
2018-07-02T04:03:29.753Z,11.59
2018-07-02T04:04:39.798Z,11.53
2018-07-02T04:05:49.893Z,11.67
2018-07-02T04:06:59.953Z,11.58
2018-07-02T04:08:10.701Z,11.62
2018-07-02T04:09:22.446Z,11.73
2018-07-02T04:10:34.008Z,11.68
2018-07-02T04:11:44.694Z,11.77
2018-07-02T04:12:54.873Z,11.76
2018-07-02T04:14:05.073Z,11.8
2018-07-02T04:15:15.166Z,11.77
2018-07-02T04:16:25.504Z,11.95
2018-07-02T04:17:36.403Z,11.89
2018-07-02T04:18:47.524Z,11.91
2018-07-02T04:20:00.934Z,11.95
2018-07-02T04:21:11.245Z,11.95
2018-07-02T04:22:22.576Z,11.96
2018-07-02T04:23:32.894Z,12
2018-07-02T04:24:44.616Z,12
2018-07-02T04:25:54.632Z,12.12
2018-07-02T04:27:05.814Z,12.07
2018-07-02T04:28:16.206Z,12.11
2018-07-02T04:29:27.396Z,12.21
2018-07-02T04:30:37.503Z,12.25
2018-07-02T04:31:47.535Z,12.21
2018-07-02T04:32:57.353Z,12.18
2018-07-02T04:34:07.194Z,12.29
2018-07-02T04:35:18.221Z,12.25
2018-07-02T04:36:29.296Z,12.28
2018-07-02T04:37:40.621Z,12.32
2018-07-02T04:38:51.217Z,12.37
2018-07-02T04:40:01.290Z,12.4
2018-07-02T04:41:13.961Z,12.47
2018-07-02T04:42:24.549Z,12.47
2018-07-02T04:43:36.020Z,12.53
2018-07-02T04:44:48.321Z,12.54
2018-07-02T04:45:59.613Z,12.53
2018-07-02T04:47:11.073Z,12.65
2018-07-02T04:48:23.586Z,12.76
2018-07-02T04:49:36.836Z,12.76
2018-07-02T04:50:49.338Z,12.73
2018-07-02T04:52:01.818Z,12.76
2018-07-02T04:53:14.533Z,12.88
2018-07-02T04:54:26.629Z,12.84
2018-07-02T04:55:37.189Z,12.9
2018-07-02T04:56:48.765Z,12.86
2018-07-02T04:58:00.574Z,12.93
2018-07-02T04:59:12.210Z,12.99
2018-07-02T05:00:23.953Z,12.94
2018-07-02T05:01:35.470Z,13.03
2018-07-02T05:02:45.570Z,13.03
2018-07-02T05:03:55.285Z,13.03
2018-07-02T05:05:05.251Z,13.13
2018-07-02T05:06:15.219Z,13.09
2018-07-02T05:07:25.177Z,13.09
2018-07-02T05:08:34.786Z,13.13
2018-07-02T05:09:44.764Z,13.17
2018-07-02T05:10:54.719Z,13.13
2018-07-02T05:12:04.883Z,13.3
2018-07-02T05:13:14.604Z,13.3
2018-07-02T05:14:24.571Z,13.33
2018-07-02T05:15:34.537Z,13.28
2018-07-02T05:16:44.493Z,13.39
2018-07-02T05:17:54.199Z,13.42
2018-07-02T05:19:04.160Z,13.43
2018-07-02T05:20:14.130Z,13.46
2018-07-02T05:21:24.099Z,13.54
2018-07-02T05:22:33.814Z,13.58
2018-07-02T05:23:43.522Z,13.64
2018-07-02T05:24:53.485Z,13.65
2018-07-02T05:26:03.453Z,13.68
2018-07-02T05:27:13.438Z,13.67
2018-07-02T05:28:23.170Z,13.8
2018-07-02T05:29:32.923Z,13.76
2018-07-02T05:30:43.074Z,13.91
2018-07-02T05:31:52.786Z,13.91
2018-07-02T05:33:02.761Z,13.85
2018-07-02T05:34:12.483Z,13.87
2018-07-02T05:35:22.451Z,14.01
2018-07-02T05:36:32.445Z,13.87
2018-07-02T05:37:42.408Z,14
2018-07-02T05:38:52.557Z,14.03
2018-07-02T05:40:02.370Z,14.08
2018-07-02T05:41:12.334Z,14.12
2018-07-02T05:42:22.293Z,14.15
2018-07-02T05:43:32.000Z,14.22
2018-07-02T05:44:41.751Z,14.2
2018-07-02T05:45:51.711Z,14.26
2018-07-02T05:47:01.417Z,14.28
2018-07-02T05:48:11.129Z,14.31
2018-07-02T05:49:21.084Z,14.41
2018-07-02T05:50:30.778Z,14.52
2018-07-02T05:51:40.744Z,14.53
2018-07-02T05:52:50.710Z,14.61
2018-07-02T05:54:00.422Z,14.68
2018-07-02T05:55:10.398Z,14.66
2018-07-02T05:56:20.386Z,14.82
2018-07-02T05:57:30.083Z,14.73
2018-07-02T05:58:40.049Z,14.85
2018-07-02T05:59:50.187Z,14.86
2018-07-02T06:01:00.178Z,14.97
2018-07-02T06:02:09.927Z,14.93
2018-07-02T06:03:19.910Z,15.04
2018-07-02T06:04:29.881Z,15.04
2018-07-02T06:05:39.580Z,15.05
2018-07-02T06:06:49.571Z,15.12
2018-07-02T06:08:00.064Z,15.1
2018-07-02T06:09:10.245Z,15.25
2018-07-02T06:10:20.207Z,15.27
2018-07-02T06:11:30.184Z,15.27
2018-07-02T06:12:39.716Z,15.27
2018-07-02T06:13:49.686Z,15.36
2018-07-02T06:14:59.669Z,15.27
2018-07-02T06:16:09.645Z,15.37
2018-07-02T06:17:19.621Z,15.44
2018-07-02T06:18:29.572Z,15.51
2018-07-02T06:19:39.529Z,15.52
2018-07-02T06:20:49.239Z,15.6
2018-07-02T06:21:58.945Z,15.59
2018-07-02T06:23:08.656Z,15.65
2018-07-02T06:24:18.620Z,15.75
2018-07-02T06:25:28.592Z,15.81
2018-07-02T06:26:38.575Z,15.85
2018-07-02T06:27:48.545Z,15.85
2018-07-02T06:28:58.252Z,15.94
2018-07-02T06:30:08.215Z,16
2018-07-02T06:31:18.186Z,16.02
2018-07-02T06:32:28.161Z,16.06
2018-07-02T06:33:37.919Z,16.13
2018-07-02T06:34:47.891Z,16.21
2018-07-02T06:35:57.865Z,16.24
2018-07-02T06:37:07.307Z,16.29
2018-07-02T06:38:17.275Z,16.32
2018-07-02T06:39:27.236Z,16.4
2018-07-02T06:40:36.939Z,16.39
2018-07-02T06:41:46.911Z,16.43
2018-07-02T06:42:56.869Z,16.54
2018-07-02T06:44:06.835Z,16.5
2018-07-02T06:45:16.555Z,16.5
2018-07-02T06:46:26.531Z,16.54
2018-07-02T06:47:36.510Z,16.65
2018-07-02T06:48:46.486Z,16.68
2018-07-02T06:49:56.554Z,16.76
2018-07-02T06:51:05.748Z,16.8
2018-07-02T06:52:15.473Z,16.8
2018-07-02T06:53:25.438Z,16.86
2018-07-02T06:54:35.422Z,16.82
2018-07-02T06:55:45.389Z,16.92
2018-07-02T06:56:55.372Z,16.95
2018-07-02T06:58:05.092Z,17.07
2018-07-02T06:59:14.808Z,17.14
2018-07-02T07:00:24.794Z,17.1
2018-07-02T07:01:34.785Z,17.16
2018-07-02T07:02:44.495Z,17.23
2018-07-02T07:03:54.267Z,17.2
2018-07-02T07:05:04.243Z,17.2
2018-07-02T07:06:14.255Z,17.23
2018-07-02T07:07:24.227Z,17.3
2018-07-02T07:08:34.160Z,17.32
2018-07-02T07:09:44.283Z,17.37
2018-07-02T07:10:53.741Z,17.38
2018-07-02T07:12:03.198Z,17.47
2018-07-02T07:13:13.187Z,17.52
2018-07-02T07:14:23.217Z,17.68
2018-07-02T07:15:33.301Z,17.73
2018-07-02T07:16:43.496Z,17.6
2018-07-02T07:17:53.508Z,17.71
2018-07-02T07:19:03.514Z,17.68
2018-07-02T07:20:13.298Z,17.72
2018-07-02T07:21:23.325Z,17.71
2018-07-02T07:22:32.830Z,17.63
2018-07-02T07:23:42.845Z,17.66
2018-07-02T07:24:52.890Z,17.65
2018-07-02T07:26:02.944Z,17.63
2018-07-02T07:27:12.665Z,17.49
2018-07-02T07:28:22.646Z,17.47
2018-07-02T07:29:32.376Z,17.63
2018-07-02T07:30:42.405Z,17.65
2018-07-02T07:31:52.457Z,17.65
2018-07-02T07:33:01.925Z,17.68
2018-07-02T07:34:11.924Z,17.69
2018-07-02T07:35:21.909Z,17.72
2018-07-02T07:36:31.885Z,17.8
2018-07-02T07:37:41.868Z,17.91
2018-07-02T07:38:51.843Z,17.97
2018-07-02T07:40:01.809Z,18.05
2018-07-02T07:41:11.807Z,18.11
2018-07-02T07:42:21.550Z,18.15
2018-07-02T07:43:31.277Z,18.28
2018-07-02T07:44:40.983Z,18.27
2018-07-02T07:45:51.048Z,18.26
2018-07-02T07:47:00.241Z,18.28
2018-07-02T07:48:09.990Z,18.26
2018-07-02T07:49:19.994Z,18.24
2018-07-02T07:50:29.454Z,18.12
2018-07-02T07:51:39.174Z,18.26
2018-07-02T07:52:48.884Z,18.39
2018-07-02T07:53:58.865Z,18.48
2018-07-02T07:55:08.573Z,18.51
2018-07-02T07:56:18.552Z,18.61
2018-07-02T07:57:28.521Z,18.45
2018-07-02T07:58:38.501Z,18.43
2018-07-02T07:59:47.959Z,18.45
2018-07-02T08:00:57.954Z,18.46
2018-07-02T08:02:07.933Z,18.58
2018-07-02T08:03:17.646Z,18.71
2018-07-02T08:04:27.634Z,18.83
2018-07-02T08:05:37.652Z,18.96
2018-07-02T08:06:47.631Z,19.04
2018-07-02T08:07:57.637Z,19.08
2018-07-02T08:09:07.669Z,19.2
2018-07-02T08:10:17.664Z,19.26
2018-07-02T08:11:27.435Z,19.29
2018-07-02T08:12:37.526Z,19.29
2018-07-02T08:13:47.255Z,19.29
2018-07-02T08:14:57.262Z,19.12
2018-07-02T08:16:07.262Z,19.2
2018-07-02T08:17:17.245Z,19.24
2018-07-02T08:18:27.231Z,19.3
2018-07-02T08:19:36.967Z,19.3
2018-07-02T08:20:46.986Z,19.32
2018-07-02T08:21:56.957Z,19.44
2018-07-02T08:23:06.672Z,19.59
2018-07-02T08:24:16.409Z,19.74
2018-07-02T08:25:26.399Z,19.89
2018-07-02T08:26:36.394Z,19.96
2018-07-02T08:27:46.383Z,19.96
2018-07-02T08:28:56.357Z,20.03
2018-07-02T08:30:06.397Z,20.14
2018-07-02T08:31:16.421Z,20.14
2018-07-02T08:32:26.452Z,19.97
2018-07-02T08:33:35.905Z,19.97
2018-07-02T08:34:45.622Z,20.08
2018-07-02T08:35:55.359Z,20.08
2018-07-02T08:37:05.376Z,20.22
2018-07-02T08:38:15.155Z,20.34
2018-07-02T08:39:24.892Z,20.53
2018-07-02T08:40:34.615Z,20.64
2018-07-02T08:41:44.386Z,20.78
2018-07-02T08:42:54.359Z,20.92
2018-07-02T08:44:04.119Z,21.07
2018-07-02T08:45:14.118Z,21.41
2018-07-02T08:46:24.134Z,21.33
2018-07-02T08:47:34.126Z,21.48
2018-07-02T08:48:44.097Z,21.48
2018-07-02T08:49:54.083Z,21.77
2018-07-02T08:51:04.082Z,22.15
2018-07-02T08:52:13.799Z,22.61
2018-07-02T08:53:23.781Z,22.86
2018-07-02T08:54:33.499Z,22.76
2018-07-02T08:55:43.490Z,23.01
2018-07-02T08:56:53.471Z,23.47
2018-07-02T08:58:03.215Z,23.67
2018-07-02T08:59:12.945Z,23.84
2018-07-02T09:00:22.910Z,23.76
2018-07-02T09:01:32.636Z,23.58
2018-07-02T09:02:42.631Z,23.52
2018-07-02T09:03:52.351Z,23.76
2018-07-02T09:05:02.074Z,24.21
2018-07-02T09:06:12.064Z,24.28
2018-07-02T09:07:21.790Z,24.56
2018-07-02T09:08:31.764Z,24.75
2018-07-02T09:09:41.748Z,24.85
2018-07-02T09:10:51.744Z,24.94
2018-07-02T09:12:01.724Z,25.36
2018-07-02T09:13:11.461Z,25.61
2018-07-02T09:14:21.459Z,25.8
2018-07-02T09:15:31.192Z,25.54
2018-07-02T09:16:40.699Z,25.31
2018-07-02T09:17:50.499Z,25.21
2018-07-02T09:18:59.982Z,25.09
2018-07-02T09:20:09.730Z,25.11
2018-07-02T09:21:19.763Z,24.82
2018-07-02T09:22:29.772Z,25.12
2018-07-02T09:23:39.780Z,25.26
2018-07-02T09:24:49.878Z,25.62
2018-07-02T09:25:59.869Z,25.89
2018-07-02T09:27:09.873Z,26.31
2018-07-02T09:28:19.897Z,26.41
2018-07-02T09:29:29.659Z,26.51
2018-07-02T09:30:39.636Z,26.6
2018-07-02T09:31:49.648Z,26.6
2018-07-02T09:32:59.664Z,26.29
2018-07-02T09:34:09.135Z,26.27
2018-07-02T09:35:18.857Z,25.95
2018-07-02T09:36:28.597Z,25.91
2018-07-02T09:37:38.635Z,25.71
2018-07-02T09:38:48.620Z,25.48
2018-07-02T09:39:58.661Z,25.41
2018-07-02T09:41:08.939Z,25.44
2018-07-02T09:42:18.655Z,25.14
2018-07-02T09:43:28.657Z,25.04
2018-07-02T09:44:38.651Z,25.24
2018-07-02T09:45:48.687Z,25.26
2018-07-02T09:46:58.451Z,25.51
2018-07-02T09:48:08.184Z,25.96
2018-07-02T09:49:18.279Z,26.29
2018-07-02T09:50:28.306Z,26.67
2018-07-02T09:51:38.046Z,27.04
2018-07-02T09:52:48.045Z,27.05
2018-07-02T09:53:57.764Z,26.64
2018-07-02T09:55:07.771Z,26.11
2018-07-02T09:56:17.567Z,26.33
2018-07-02T09:57:27.314Z,26.37
2018-07-02T09:58:37.031Z,26.56
2018-07-02T09:59:47.022Z,26.82
2018-07-02T10:00:57.024Z,26.78
2018-07-02T10:02:07.005Z,26.85
2018-07-02T10:03:17.177Z,27.28
2018-07-02T10:04:26.952Z,27.48
2018-07-02T10:05:36.692Z,27.75
2018-07-02T10:06:46.573Z,27.4
2018-07-02T10:07:56.626Z,27.25
2018-07-02T10:09:06.386Z,27.52
2018-07-02T10:10:16.050Z,27.75
2018-07-02T10:11:26.310Z,27.88
2018-07-02T10:12:36.469Z,27.68
2018-07-02T10:13:46.526Z,27.34
2018-07-02T10:14:56.353Z,26.86
2018-07-02T10:16:06.429Z,26.44
2018-07-02T10:17:16.157Z,26.3
2018-07-02T10:18:25.911Z,26.39
2018-07-02T10:19:35.924Z,26.3
2018-07-02T10:20:45.659Z,26.48
2018-07-02T10:21:55.631Z,26.67
2018-07-02T10:23:05.631Z,26.67
2018-07-02T10:24:15.624Z,26.44
2018-07-02T10:25:25.620Z,26.46
2018-07-02T10:26:35.366Z,26.51
2018-07-02T10:27:45.341Z,26.19
2018-07-02T10:28:55.071Z,26.23
2018-07-02T10:30:05.064Z,25.73
2018-07-02T10:31:14.720Z,25.3
2018-07-02T10:32:24.814Z,25.26
2018-07-02T10:33:34.810Z,25.16
2018-07-02T10:34:44.672Z,25.31
2018-07-02T10:35:54.886Z,25.39
2018-07-02T10:37:04.874Z,25.44
2018-07-02T10:38:14.858Z,25.41
2018-07-02T10:39:24.855Z,25.55
2018-07-02T10:40:34.580Z,25.52
2018-07-02T10:41:44.555Z,25.67
2018-07-02T10:42:54.289Z,25.85
2018-07-02T10:44:04.279Z,26.04
2018-07-02T10:45:14.270Z,26.52
2018-07-02T10:46:24.266Z,26.83
2018-07-02T10:47:34.008Z,27.16
2018-07-02T10:48:43.758Z,27.29
2018-07-02T10:49:53.469Z,27.57
2018-07-02T10:51:03.446Z,27.53
2018-07-02T10:52:13.436Z,27.72
2018-07-02T10:53:23.448Z,27.23
2018-07-02T10:54:33.482Z,27.45
2018-07-02T10:55:43.580Z,27.71
2018-07-02T10:56:53.852Z,27.88
2018-07-02T10:58:03.853Z,28.01
2018-07-02T10:59:13.321Z,27.94
2018-07-02T11:00:23.322Z,27.97
2018-07-02T11:01:33.573Z,28.08
2018-07-02T11:02:43.553Z,27.9
2018-07-02T11:03:53.544Z,27.75
2018-07-02T11:05:03.555Z,27.76
2018-07-02T11:06:13.557Z,27.58
2018-07-02T11:07:23.285Z,27.52
2018-07-02T11:08:33.261Z,26.92
2018-07-02T11:09:43.287Z,26.7
2018-07-02T11:10:53.023Z,26.53
2018-07-02T11:12:03.016Z,26.15
2018-07-02T11:13:13.011Z,26.07
2018-07-02T11:14:22.759Z,25.81
2018-07-02T11:15:32.496Z,25.26
2018-07-02T11:16:42.230Z,25.04
2018-07-02T11:17:52.219Z,25
2018-07-02T11:19:02.212Z,24.79
2018-07-02T11:20:12.219Z,24.79
2018-07-02T11:21:22.197Z,24.71
2018-07-02T11:22:31.917Z,24.78
2018-07-02T11:23:42.047Z,24.92
2018-07-02T11:24:51.911Z,25.21
2018-07-02T11:26:01.647Z,25.37
2018-07-02T11:27:11.630Z,25.7
2018-07-02T11:28:21.624Z,25.95
2018-07-02T11:29:31.614Z,26.3
2018-07-02T11:30:41.602Z,26.63
2018-07-02T11:31:51.613Z,27.01
2018-07-02T11:33:01.590Z,27.3
2018-07-02T11:34:11.570Z,27.72
2018-07-02T11:35:21.300Z,27.9
2018-07-02T11:36:31.297Z,27.78
2018-07-02T11:37:41.023Z,27.75
2018-07-02T11:38:50.820Z,27.9
2018-07-02T11:40:00.920Z,28.22
2018-07-02T11:41:11.137Z,28.74
2018-07-02T11:42:20.853Z,29.05
2018-07-02T11:43:30.850Z,28.94
2018-07-02T11:44:40.570Z,29.03
2018-07-02T11:45:50.555Z,28.92
2018-07-02T11:47:00.282Z,29.12
2018-07-02T11:48:10.266Z,29.4
2018-07-02T11:49:20.296Z,29.59
2018-07-02T11:50:30.022Z,29.44
2018-07-02T11:51:39.747Z,28.8
2018-07-02T11:52:49.728Z,28.92
2018-07-02T11:53:59.711Z,29.07
2018-07-02T11:55:09.436Z,29.06
2018-07-02T11:56:19.424Z,28.59
2018-07-02T11:57:29.551Z,28.22
2018-07-02T11:58:39.176Z,27.73
2018-07-02T11:59:49.201Z,27.19
2018-07-02T12:00:58.932Z,26.63
2018-07-02T12:02:08.936Z,26.39
2018-07-02T12:03:18.954Z,26.15
2018-07-02T12:04:28.931Z,25.76
2018-07-02T12:05:38.967Z,25.68
2018-07-02T12:06:48.961Z,25.31
2018-07-02T12:07:58.420Z,25.18
2018-07-02T12:09:08.132Z,25.11
2018-07-02T12:10:17.342Z,24.78
2018-07-02T12:11:27.312Z,24.56
2018-07-02T12:12:37.282Z,24.75
2018-07-02T12:13:47.260Z,25.12
2018-07-02T12:14:56.968Z,25.66
2018-07-02T12:16:06.950Z,26.18
2018-07-02T12:17:16.725Z,26.37
2018-07-02T12:18:26.713Z,26.82
2018-07-02T12:19:36.445Z,27.3
2018-07-02T12:20:46.474Z,27.9
2018-07-02T12:21:56.472Z,27.9
2018-07-02T12:23:06.198Z,27.53
2018-07-02T12:24:16.271Z,27.38
2018-07-02T12:25:26.435Z,27.47
2018-07-02T12:26:36.545Z,27.43
2018-07-02T12:27:46.288Z,27.44
2018-07-02T12:28:56.305Z,27.79
2018-07-02T12:30:06.047Z,28.18
2018-07-02T12:31:16.042Z,28.65
2018-07-02T12:32:25.772Z,29
2018-07-02T12:33:36.043Z,29.49
2018-07-02T12:34:45.713Z,29.84
2018-07-02T12:35:55.711Z,30.11
2018-07-02T12:37:05.718Z,30.27
2018-07-02T12:38:15.753Z,30.49
2018-07-02T12:39:25.741Z,30.69
2018-07-02T12:40:35.885Z,30.05
2018-07-02T12:41:45.384Z,29.68
2018-07-02T12:42:55.140Z,29.3
2018-07-02T12:44:04.875Z,29.69
2018-07-02T12:45:14.867Z,30.02
2018-07-02T12:46:24.874Z,30.31
2018-07-02T12:47:34.873Z,30.43
2018-07-02T12:48:44.885Z,30.52
2018-07-02T12:49:54.894Z,30.1
2018-07-02T12:51:04.889Z,29.84
2018-07-02T12:52:14.868Z,29.67
2018-07-02T12:53:24.853Z,29.57
2018-07-02T12:54:34.583Z,29.57
2018-07-02T12:55:44.579Z,29.49
2018-07-02T12:56:54.350Z,29.39
2018-07-02T12:58:04.350Z,29.3
2018-07-02T12:59:14.102Z,29.16
2018-07-02T13:00:24.086Z,28.9
2018-07-02T13:01:33.815Z,28.82
2018-07-02T13:02:43.531Z,28.06
2018-07-02T13:03:53.538Z,27.6
2018-07-02T13:05:03.018Z,27.52
2018-07-02T13:06:12.985Z,27.19
2018-07-02T13:07:22.988Z,27.11
2018-07-02T13:08:33.001Z,27.08
2018-07-02T13:09:42.983Z,27.1
2018-07-02T13:10:52.723Z,26.97
2018-07-02T13:12:02.716Z,26.89
2018-07-02T13:13:12.447Z,26.37
2018-07-02T13:14:22.430Z,26.6
2018-07-02T13:15:32.173Z,26.79
2018-07-02T13:16:42.164Z,26.79
2018-07-02T13:17:51.886Z,26.91
2018-07-02T13:19:01.857Z,27.19
2018-07-02T13:20:11.830Z,27.52
2018-07-02T13:21:21.805Z,27.78
2018-07-02T13:22:31.512Z,28.27
2018-07-02T13:23:41.268Z,28.75
2018-07-02T13:24:51.413Z,29.13
2018-07-02T13:26:01.544Z,29.57
2018-07-02T13:27:11.654Z,29.76
2018-07-02T13:28:21.892Z,29.84
2018-07-02T13:29:32.220Z,29.81
2018-07-02T13:30:42.582Z,29.81
2018-07-02T13:31:52.645Z,29.86
2018-07-02T13:33:02.620Z,29.89
2018-07-02T13:34:12.738Z,29.95
2018-07-02T13:35:22.729Z,30.17
2018-07-02T13:36:32.246Z,30.13
2018-07-02T13:37:42.661Z,30.52
2018-07-02T13:38:52.885Z,30.65
2018-07-02T13:40:02.921Z,30.59
2018-07-02T13:41:12.918Z,31.14
2018-07-02T13:42:22.912Z,31.41
2018-07-02T13:43:32.898Z,31.92
2018-07-02T13:44:42.897Z,32.39
2018-07-02T13:45:52.671Z,32.63
2018-07-02T13:47:02.648Z,32.93
2018-07-02T13:48:12.684Z,32.44
2018-07-02T13:49:22.666Z,31.72
2018-07-02T13:50:32.411Z,31.37
2018-07-02T13:51:42.406Z,31.32
2018-07-02T13:52:52.405Z,31.11
2018-07-02T13:54:02.421Z,30.89
2018-07-02T13:55:12.482Z,30.56
2018-07-02T13:56:22.035Z,30.14
2018-07-02T13:57:32.027Z,29.73
2018-07-02T13:58:41.502Z,29.65
2018-07-02T13:59:51.510Z,29.43
2018-07-02T14:01:01.512Z,29.28
2018-07-02T14:02:11.492Z,29.13
2018-07-02T14:03:21.497Z,28.71
2018-07-02T14:04:31.478Z,28.34
2018-07-02T14:05:41.197Z,28.19
2018-07-02T14:06:51.166Z,28.03
2018-07-02T14:08:01.159Z,27.97
2018-07-02T14:09:10.877Z,27.93
2018-07-02T14:10:20.856Z,27.98
2018-07-02T14:11:30.584Z,27.93
2018-07-02T14:12:40.311Z,27.81
2018-07-02T14:13:50.283Z,27.76
2018-07-02T14:15:00.284Z,27.66
2018-07-02T14:16:10.275Z,27.57
2018-07-02T14:17:20.261Z,27.19
2018-07-02T14:18:29.994Z,26.86
2018-07-02T14:19:39.982Z,26.81
2018-07-02T14:20:49.958Z,26.82
2018-07-02T14:21:59.693Z,26.56
2018-07-02T14:23:09.669Z,26.41
2018-07-02T14:24:19.661Z,26.33
2018-07-02T14:25:29.399Z,25.98
2018-07-02T14:26:39.109Z,25.74
2018-07-02T14:27:49.115Z,25.55
2018-07-02T14:28:59.094Z,25.29
2018-07-02T14:30:08.830Z,25.33
2018-07-02T14:31:18.280Z,25.19
2018-07-02T14:32:28.269Z,25.21
2018-07-02T14:33:38.245Z,25.37
2018-07-02T14:34:47.975Z,25.61
2018-07-02T14:35:57.188Z,26.08
2018-07-02T14:37:06.941Z,26.51
2018-07-02T14:38:16.941Z,26.86
2018-07-02T14:39:27.103Z,27.1
2018-07-02T14:40:36.308Z,27.26
2018-07-02T14:41:46.097Z,27.35
2018-07-02T14:42:56.076Z,27.37
2018-07-02T14:44:06.060Z,27.67
2018-07-02T14:45:16.112Z,27.73
2018-07-02T14:46:26.841Z,27.64
2018-07-02T14:47:36.312Z,27.5
2018-07-02T14:48:46.033Z,27.23
2018-07-02T14:49:56.041Z,27.18
2018-07-02T14:51:06.185Z,26.93
2018-07-02T14:52:16.181Z,27.08
2018-07-02T14:53:26.157Z,27.45
2018-07-02T14:54:35.872Z,27.81
2018-07-02T14:55:45.846Z,27.78
2018-07-02T14:56:55.835Z,27.37
2018-07-02T14:58:05.565Z,27.01
2018-07-02T14:59:15.558Z,26.59
2018-07-02T15:00:25.544Z,26.42
2018-07-02T15:01:35.533Z,26.46
2018-07-02T15:02:44.995Z,26.66
2018-07-02T15:03:54.965Z,26.85
2018-07-02T15:05:04.967Z,26.83
2018-07-02T15:06:14.439Z,27.01
2018-07-02T15:07:24.416Z,27.23